createdAt,value
2018-12-15T00:00:58.135Z,12.20
2018-12-15T00:03:28.170Z,11.37
2018-12-15T00:05:58.012Z,10.53
2018-12-15T00:08:27.946Z,13.07
2018-12-15T00:10:57.830Z,11.03
2018-12-15T00:13:27.809Z,11.90
2018-12-15T00:15:57.954Z,10.40
2018-12-15T00:18:27.741Z,11.80
2018-12-15T00:20:57.764Z,14.57
2018-12-15T00:23:27.554Z,12.43
2018-12-15T00:25:58.268Z,12.27
2018-12-15T00:28:28.141Z,11.00
2018-12-15T00:30:58.090Z,11.37
2018-12-15T00:33:27.962Z,9.73
2018-12-15T00:35:57.791Z,10.57
2018-12-15T00:38:27.615Z,14.93
2018-12-15T00:40:57.513Z,9.17
2018-12-15T00:43:27.477Z,11.90
2018-12-15T00:45:57.457Z,10.20
2018-12-15T00:48:27.805Z,11.03
2018-12-15T00:50:58.342Z,10.87
2018-12-15T00:53:28.214Z,10.90
2018-12-15T00:55:58.001Z,12.47
2018-12-15T00:58:27.918Z,10.73
2018-12-15T01:00:57.752Z,11.47
2018-12-15T01:03:27.416Z,10.30
2018-12-15T01:05:57.180Z,9.90
2018-12-15T01:08:26.993Z,10.37
2018-12-15T01:10:56.676Z,9.97
2018-12-15T01:13:26.405Z,9.27
2018-12-15T01:15:56.295Z,10.93
2018-12-15T01:18:26.190Z,11.67
2018-12-15T01:20:55.960Z,8.63
2018-12-15T01:23:25.831Z,9.83
2018-12-15T01:25:55.689Z,10.73
2018-12-15T01:28:25.484Z,9.10
2018-12-15T01:30:55.169Z,9.30
2018-12-15T01:33:24.877Z,8.47
2018-12-15T01:35:54.960Z,8.57
2018-12-15T01:38:24.750Z,7.60
2018-12-15T01:40:54.859Z,10.03
2018-12-15T01:43:24.844Z,9.73
2018-12-15T01:45:54.839Z,8.80
2018-12-15T01:48:24.604Z,9.47
2018-12-15T01:50:54.545Z,9.43
2018-12-15T01:53:24.196Z,8.13
2018-12-15T01:55:53.955Z,6.27
2018-12-15T01:58:23.781Z,8.90
2018-12-15T02:00:53.453Z,8.50
2018-12-15T02:03:23.152Z,8.43
2018-12-15T02:05:53.109Z,8.57
2018-12-15T02:08:22.881Z,7.53
2018-12-15T02:10:52.918Z,7.87
2018-12-15T02:13:23.249Z,8.67
2018-12-15T02:15:53.136Z,8.03
2018-12-15T02:18:22.908Z,10.23
2018-12-15T02:20:52.917Z,8.97
2018-12-15T02:23:22.673Z,7.87
2018-12-15T02:25:52.395Z,7.93
2018-12-15T02:28:22.816Z,9.87
2018-12-15T02:30:52.660Z,7.97
2018-12-15T02:33:22.506Z,8.10
2018-12-15T02:35:52.796Z,7.97
2018-12-15T02:38:22.569Z,8.87
2018-12-15T02:40:52.452Z,7.80
2018-12-15T02:43:22.304Z,8.27
2018-12-15T02:45:52.209Z,9.10
2018-12-15T02:48:21.967Z,8.23
2018-12-15T02:50:51.723Z,8.63
2018-12-15T02:53:21.685Z,8.07
2018-12-15T02:55:51.557Z,10.30
2018-12-15T02:58:21.480Z,8.53
2018-12-15T03:00:51.768Z,10.13
2018-12-15T03:03:21.538Z,9.77
2018-12-15T03:05:51.373Z,10.43
2018-12-15T03:08:21.273Z,11.20
2018-12-15T03:10:51.229Z,7.60
2018-12-15T03:13:20.941Z,9.88
2018-12-15T03:15:50.947Z,8.60
2018-12-15T03:18:20.710Z,9.90
2018-12-15T03:21:03.896Z,9.73
2018-12-15T03:23:35.546Z,10.40
2018-12-15T03:26:05.634Z,10.73
2018-12-15T03:28:35.299Z,10.20
2018-12-15T03:31:05.053Z,9.98
2018-12-15T03:33:35.203Z,9.43
2018-12-15T03:36:04.906Z,11.23
2018-12-15T03:38:34.780Z,10.87
2018-12-15T03:41:04.780Z,8.35
2018-12-15T03:43:34.464Z,10.45
2018-12-15T03:46:04.359Z,10.33
2018-12-15T03:48:34.143Z,9.80
2018-12-15T03:51:03.901Z,10.78
2018-12-15T03:53:33.657Z,10.13
2018-12-15T03:56:03.545Z,10.53
2018-12-15T03:58:33.381Z,10.35
2018-12-15T04:01:03.211Z,9.55
2018-12-15T04:03:32.862Z,9.43
2018-12-15T04:06:03.169Z,11.40
2018-12-15T04:08:32.928Z,13.83
2018-12-15T04:11:04.345Z,10.10
2018-12-15T04:13:34.036Z,10.53
2018-12-15T04:16:04.345Z,10.73
2018-12-15T04:18:34.120Z,9.57
2018-12-15T04:21:05.292Z,10.87
2018-12-15T04:23:35.664Z,10.10
2018-12-15T04:26:05.485Z,12.50
2018-12-15T04:28:35.227Z,10.73
2018-12-15T04:31:05.170Z,13.90
2018-12-15T04:33:34.915Z,10.67
2018-12-15T04:36:16.088Z,13.20
2018-12-15T04:38:46.003Z,13.00
2018-12-15T04:41:15.860Z,12.60
2018-12-15T04:43:45.589Z,12.87
2018-12-15T04:46:15.534Z,13.40
2018-12-15T04:48:45.333Z,13.23
2018-12-15T04:51:15.220Z,13.17
2018-12-15T04:53:44.941Z,13.30
2018-12-15T04:56:14.774Z,12.33
2018-12-15T04:58:44.402Z,14.60
2018-12-15T05:01:14.127Z,19.20
2018-12-15T05:03:43.968Z,14.85
2018-12-15T05:06:13.779Z,17.07
2018-12-15T05:08:43.802Z,12.20
2018-12-15T05:11:13.649Z,12.43
2018-12-15T05:13:43.596Z,12.40
2018-12-15T05:16:13.440Z,14.80
2018-12-15T05:18:43.317Z,14.03
2018-12-15T05:21:13.095Z,11.50
2018-12-15T05:23:43.058Z,12.00
2018-12-15T05:26:12.800Z,12.13
2018-12-15T05:28:42.532Z,14.13
2018-12-15T05:31:12.200Z,13.70
2018-12-15T05:33:41.961Z,12.73
2018-12-15T05:36:11.645Z,13.17
2018-12-15T05:38:41.484Z,13.77
2018-12-15T05:41:11.176Z,14.00
2018-12-15T05:43:41.052Z,15.50
2018-12-15T05:46:10.921Z,15.43
2018-12-15T05:48:40.731Z,12.47
2018-12-15T05:51:11.132Z,12.97
2018-12-15T05:53:41.121Z,12.30
2018-12-15T05:56:11.129Z,10.82
2018-12-15T05:58:40.859Z,13.30
2018-12-15T06:01:10.611Z,13.23
2018-12-15T06:03:40.325Z,15.87
2018-12-15T06:06:10.289Z,11.67
2018-12-15T06:08:40.070Z,13.83
2018-12-15T06:11:09.906Z,13.73
2018-12-15T06:13:39.827Z,17.43
2018-12-15T06:16:09.592Z,14.00
2018-12-15T06:18:39.917Z,11.47
2018-12-15T06:21:09.612Z,12.35
2018-12-15T06:23:39.345Z,11.63
2018-12-15T06:26:09.260Z,11.63
2018-12-15T06:28:39.188Z,11.30
2018-12-15T06:31:09.031Z,11.12
2018-12-15T06:33:39.109Z,11.70
2018-12-15T06:36:08.884Z,11.08
2018-12-15T06:38:38.625Z,12.20
2018-12-15T06:41:08.338Z,11.67
2018-12-15T06:43:38.958Z,12.27
2018-12-15T06:46:09.186Z,12.73
2018-12-15T06:48:39.192Z,13.60
2018-12-15T06:51:09.025Z,11.85
2018-12-15T06:53:38.667Z,11.77
2018-12-15T06:56:08.484Z,12.88
2018-12-15T06:58:38.713Z,11.97
2018-12-15T07:01:08.457Z,12.23
2018-12-15T07:03:38.191Z,12.03
2018-12-15T07:06:08.871Z,12.93
2018-12-15T07:08:38.667Z,13.40
2018-12-15T07:11:08.782Z,14.58
2018-12-15T07:13:39.270Z,15.90
2018-12-15T07:16:09.245Z,11.40
2018-12-15T07:18:44.623Z,12.33
2018-12-15T07:21:10.990Z,11.08
2018-12-15T07:23:40.738Z,13.72
2018-12-15T07:26:10.638Z,13.73
2018-12-15T07:28:40.623Z,13.98
2018-12-15T07:31:10.518Z,14.70
2018-12-15T07:33:40.445Z,14.07
2018-12-15T07:36:10.270Z,12.57
2018-12-15T07:38:41.097Z,14.50
2018-12-15T07:41:10.991Z,14.60
2018-12-15T07:43:41.512Z,12.27
2018-12-15T07:46:11.699Z,15.17
2018-12-15T07:48:42.352Z,12.90
2018-12-15T07:51:13.802Z,14.23
2018-12-15T07:53:43.567Z,14.27
2018-12-15T07:56:13.817Z,15.98
2018-12-15T07:58:43.705Z,14.57
2018-12-15T08:01:13.404Z,15.30
2018-12-15T08:03:44.083Z,14.60
2018-12-15T08:06:14.459Z,14.80
2018-12-15T08:08:45.032Z,14.40
2018-12-15T08:11:19.827Z,13.90
2018-12-15T08:13:51.694Z,14.68
2018-12-15T08:16:21.696Z,14.57
2018-12-15T08:18:57.900Z,12.00
2018-12-15T08:21:23.304Z,12.27
2018-12-15T08:23:53.149Z,12.97
2018-12-15T08:26:22.870Z,12.53
2018-12-15T08:28:52.883Z,13.30
2018-12-15T08:31:22.625Z,14.43
2018-12-15T08:33:52.646Z,16.33
2018-12-15T08:36:22.458Z,15.38
2018-12-15T08:38:52.507Z,13.60
2018-12-15T08:41:22.294Z,14.60
2018-12-15T08:43:52.148Z,14.53
2018-12-15T08:46:21.914Z,15.33
2018-12-15T08:48:51.677Z,16.00
2018-12-15T08:51:22.373Z,14.40
2018-12-15T08:53:52.186Z,14.43
2018-12-15T08:56:21.903Z,15.13
2018-12-15T08:58:51.851Z,14.87
2018-12-15T09:01:21.709Z,16.83
2018-12-15T09:03:51.626Z,14.15
2018-12-15T09:06:21.318Z,16.57
2018-12-15T09:08:51.193Z,18.27
2018-12-15T09:11:21.049Z,16.30
2018-12-15T09:13:50.778Z,14.50
2018-12-15T09:16:26.214Z,16.57
2018-12-15T09:18:52.248Z,14.13
2018-12-15T09:21:21.984Z,17.77
2018-12-15T09:23:52.624Z,14.70
2018-12-15T09:26:22.501Z,18.00
2018-12-15T09:28:52.224Z,17.33
2018-12-15T09:31:22.108Z,17.03
2018-12-15T09:33:52.005Z,16.83
2018-12-15T09:36:21.849Z,16.23
2018-12-15T09:38:51.767Z,15.30
2018-12-15T09:41:21.600Z,16.90
2018-12-15T09:43:51.507Z,18.40
2018-12-15T09:46:21.239Z,18.70
2018-12-15T09:48:51.176Z,16.70
2018-12-15T09:51:21.193Z,17.60
2018-12-15T09:53:51.102Z,19.55
2018-12-15T09:56:20.855Z,17.85
2018-12-15T09:58:50.698Z,17.45
2018-12-15T10:01:20.844Z,16.60
2018-12-15T10:03:51.244Z,17.03
2018-12-15T10:06:21.089Z,21.07
2018-12-15T10:08:50.874Z,16.83
2018-12-15T10:11:20.756Z,17.57
2018-12-15T10:13:50.688Z,18.70
2018-12-15T10:16:20.378Z,16.43
2018-12-15T10:18:50.169Z,17.03
2018-12-15T10:21:20.015Z,18.87
2018-12-15T10:23:49.939Z,15.13
2018-12-15T10:26:19.815Z,18.03
2018-12-15T10:28:49.793Z,16.43
2018-12-15T10:31:24.619Z,16.00
2018-12-15T10:33:54.685Z,14.85
2018-12-15T10:36:24.442Z,16.40
2018-12-15T10:38:54.476Z,16.17
2018-12-15T10:41:24.442Z,14.53
2018-12-15T10:43:54.482Z,17.17
2018-12-15T10:46:24.363Z,15.60
2018-12-15T10:48:54.220Z,16.97
2018-12-15T10:51:24.073Z,17.53
2018-12-15T10:53:54.135Z,19.73
2018-12-15T10:56:24.137Z,16.47
2018-12-15T10:58:53.873Z,15.43
2018-12-15T11:01:24.116Z,14.53
2018-12-15T11:03:53.903Z,13.40
2018-12-15T11:06:23.791Z,16.43
2018-12-15T11:08:53.564Z,14.13
2018-12-15T11:11:23.350Z,13.93
2018-12-15T11:13:53.725Z,14.50
2018-12-15T11:16:23.513Z,15.73
2018-12-15T11:18:53.425Z,14.20
2018-12-15T11:21:23.250Z,13.80
2018-12-15T11:23:53.009Z,12.70
2018-12-15T11:26:22.776Z,13.83
2018-12-15T11:28:52.617Z,14.90
2018-12-15T11:31:23.023Z,14.63
2018-12-15T11:33:53.029Z,13.07
2018-12-15T11:36:22.785Z,17.02
2018-12-15T11:38:52.660Z,14.93
2018-12-15T11:41:22.528Z,14.50
2018-12-15T11:43:52.317Z,14.87
2018-12-15T11:46:22.426Z,16.43
2018-12-15T11:48:52.140Z,14.87
2018-12-15T11:51:21.956Z,16.97
2018-12-15T11:53:51.672Z,16.27
2018-12-15T11:56:21.568Z,16.80
2018-12-15T11:58:51.666Z,15.10
2018-12-15T12:01:21.831Z,17.67
2018-12-15T12:03:51.775Z,14.37
2018-12-15T12:06:21.681Z,14.70
2018-12-15T12:08:51.455Z,17.07
2018-12-15T12:11:21.281Z,18.57
2018-12-15T12:13:51.152Z,17.33
2018-12-15T12:16:21.029Z,16.97
2018-12-15T12:18:50.928Z,16.40
2018-12-15T12:21:20.802Z,16.63
2018-12-15T12:23:50.753Z,25.50
2018-12-15T12:26:20.469Z,15.43
2018-12-15T12:28:50.196Z,16.63
2018-12-15T12:31:20.103Z,17.50
2018-12-15T12:33:50.112Z,16.13
2018-12-15T12:36:19.986Z,13.93
2018-12-15T12:38:49.685Z,14.87
2018-12-15T12:41:19.549Z,16.97
2018-12-15T12:43:49.386Z,13.70
2018-12-15T12:46:19.060Z,14.97
2018-12-15T12:48:49.108Z,16.60
2018-12-15T12:51:18.909Z,14.60
2018-12-15T12:53:48.706Z,16.60
2018-12-15T12:56:18.537Z,16.73
2018-12-15T12:58:48.366Z,16.47
2018-12-15T13:01:18.294Z,14.60
2018-12-15T13:03:48.269Z,15.60
2018-12-15T13:06:17.989Z,15.33
2018-12-15T13:08:47.839Z,16.50
2018-12-15T13:11:17.608Z,13.93
2018-12-15T13:13:47.489Z,13.37
2018-12-15T13:16:17.589Z,13.60
2018-12-15T13:18:47.389Z,14.73
2018-12-15T13:21:17.226Z,15.73
2018-12-15T13:23:47.008Z,13.53
2018-12-15T13:26:17.081Z,13.87
2018-12-15T13:28:46.812Z,13.47
2018-12-15T13:31:16.711Z,12.77
2018-12-15T13:33:46.548Z,15.40
2018-12-15T13:36:19.734Z,12.70
2018-12-15T13:38:49.747Z,12.77
2018-12-15T13:41:19.485Z,13.17
2018-12-15T13:43:49.604Z,14.03
2018-12-15T13:46:19.379Z,12.00
2018-12-15T13:48:49.118Z,11.70
2018-12-15T13:51:19.157Z,13.90
2018-12-15T13:53:48.957Z,15.17
2018-12-15T13:56:19.398Z,13.43
2018-12-15T13:58:49.182Z,13.77
2018-12-15T14:01:19.039Z,14.03
2018-12-15T14:03:49.065Z,13.33
2018-12-15T14:06:18.949Z,13.87
2018-12-15T14:08:48.719Z,14.70
2018-12-15T14:11:18.571Z,13.80
2018-12-15T14:13:48.413Z,14.33
2018-12-15T14:16:18.218Z,13.87
2018-12-15T14:18:48.062Z,12.00
2018-12-15T14:21:17.922Z,14.37
2018-12-15T14:23:47.888Z,11.93
2018-12-15T14:26:17.864Z,13.97
2018-12-15T14:28:47.746Z,12.83
2018-12-15T14:31:17.777Z,12.83
2018-12-15T14:33:47.768Z,15.30
2018-12-15T14:36:17.583Z,14.53
2018-12-15T14:38:47.500Z,14.07
2018-12-15T14:41:17.478Z,14.03
2018-12-15T14:43:47.283Z,11.80
2018-12-15T14:46:17.069Z,13.33
2018-12-15T14:48:46.896Z,15.13
2018-12-15T14:51:17.875Z,15.40
2018-12-15T14:53:47.548Z,14.20
2018-12-15T14:56:17.844Z,14.73
2018-12-15T14:58:48.240Z,15.73
2018-12-15T15:01:17.971Z,14.10
2018-12-15T15:03:47.725Z,11.93
2018-12-15T15:06:17.541Z,12.40
2018-12-15T15:08:47.396Z,13.37
2018-12-15T15:11:17.684Z,14.50
2018-12-15T15:13:47.628Z,14.53
2018-12-15T15:16:18.004Z,13.83
2018-12-15T15:18:47.890Z,12.15
2018-12-15T15:21:17.649Z,12.23
2018-12-15T15:23:48.554Z,13.20
2018-12-15T15:26:18.381Z,10.85
2018-12-15T15:28:48.546Z,13.50
2018-12-15T15:31:18.422Z,13.10
2018-12-15T15:33:48.093Z,14.17
2018-12-15T15:36:17.927Z,16.23
2018-12-15T15:38:47.937Z,14.07
2018-12-15T15:41:17.656Z,14.90
2018-12-15T15:43:47.489Z,13.50
2018-12-15T15:46:17.452Z,13.53
2018-12-15T15:48:47.430Z,13.98
2018-12-15T15:51:17.247Z,13.97
2018-12-15T15:53:47.131Z,15.83
2018-12-15T15:56:16.903Z,14.93
2018-12-15T15:58:46.923Z,13.30
2018-12-15T16:01:16.893Z,13.58
2018-12-15T16:03:46.806Z,12.95
2018-12-15T16:06:16.771Z,13.98
2018-12-15T16:08:46.614Z,12.17
2018-12-15T16:11:16.607Z,14.33
2018-12-15T16:13:46.609Z,14.55
2018-12-15T16:16:32.129Z,15.95
2018-12-15T16:19:02.047Z,13.68
2018-12-15T16:21:31.837Z,13.05
2018-12-15T16:24:02.142Z,15.03
2018-12-15T16:26:31.901Z,15.30
2018-12-15T16:29:01.830Z,15.48
2018-12-15T16:31:31.754Z,14.58
2018-12-15T16:34:02.731Z,13.88
2018-12-15T16:36:32.783Z,15.00
2018-12-15T16:39:02.906Z,14.83
2018-12-15T16:41:32.904Z,17.07
2018-12-15T16:44:03.811Z,15.15
2018-12-15T16:46:33.705Z,14.45
2018-12-15T16:49:03.536Z,16.57
2018-12-15T16:51:33.518Z,14.13
2018-12-15T16:54:03.784Z,14.75
2018-12-15T16:56:33.658Z,14.38
2018-12-15T16:59:03.671Z,13.93
2018-12-15T17:01:33.591Z,12.00
2018-12-15T17:04:04.026Z,14.50
2018-12-15T17:06:33.758Z,14.45
2018-12-15T17:09:05.156Z,15.20
2018-12-15T17:11:35.010Z,14.70
2018-12-15T17:14:04.930Z,13.00
2018-12-15T17:16:35.006Z,14.70
2018-12-15T17:19:04.871Z,12.98
2018-12-15T17:21:35.647Z,13.22
2018-12-15T17:24:06.052Z,13.78
2018-12-15T17:26:35.757Z,16.17
2018-12-15T17:29:05.789Z,15.90
2018-12-15T17:31:35.615Z,15.35
2018-12-15T17:34:05.419Z,14.47
2018-12-15T17:36:35.302Z,15.63
2018-12-15T17:39:07.856Z,14.00
2018-12-15T17:41:37.583Z,13.95
2018-12-15T17:44:07.435Z,15.65
2018-12-15T17:46:37.511Z,15.23
2018-12-15T17:49:07.663Z,13.90
2018-12-15T17:51:39.126Z,15.03
2018-12-15T17:54:09.026Z,14.53
2018-12-15T17:56:38.933Z,16.07
2018-12-15T17:59:08.705Z,15.48
2018-12-15T18:01:38.566Z,14.18
2018-12-15T18:04:08.512Z,14.30
2018-12-15T18:06:38.535Z,13.62
2018-12-15T18:09:09.215Z,15.32
2018-12-15T18:11:38.987Z,14.93
2018-12-15T18:14:08.881Z,15.18
2018-12-15T18:16:38.764Z,15.40
2018-12-15T18:19:08.806Z,15.32
2018-12-15T18:21:38.576Z,15.10
2018-12-15T18:24:08.965Z,14.10
2018-12-15T18:26:39.112Z,15.32
2018-12-15T18:29:09.249Z,14.10
2018-12-15T18:31:39.952Z,15.93
2018-12-15T18:34:10.069Z,16.65
2018-12-15T18:36:39.899Z,16.30
2018-12-15T18:39:09.993Z,15.78
2018-12-15T18:41:39.835Z,14.38
2018-12-15T18:44:09.675Z,14.50
2018-12-15T18:46:39.378Z,16.55
2018-12-15T18:49:10.073Z,18.77
2018-12-15T18:51:40.509Z,16.02
2018-12-15T18:54:10.376Z,14.75
2018-12-15T18:56:41.334Z,18.15
2018-12-15T18:59:11.390Z,13.83
2018-12-15T19:01:41.310Z,15.50
2018-12-15T19:04:11.195Z,19.25
2018-12-15T19:06:40.925Z,17.60
2018-12-15T19:09:11.041Z,17.37
2018-12-15T19:11:40.876Z,16.10
2018-12-15T19:14:10.658Z,16.97
2018-12-15T19:16:40.516Z,18.52
2018-12-15T19:19:10.297Z,16.27
2018-12-15T19:21:40.215Z,16.73
2018-12-15T19:24:10.066Z,16.52
2018-12-15T19:26:39.978Z,15.88
2018-12-15T19:29:09.914Z,16.73
2018-12-15T19:31:40.502Z,17.75
2018-12-15T19:34:10.367Z,15.50
2018-12-15T19:36:40.187Z,17.82
2018-12-15T19:39:10.888Z,14.63
2018-12-15T19:41:41.679Z,17.67
2018-12-15T19:44:11.470Z,17.73
2018-12-15T19:46:41.496Z,17.37
2018-12-15T19:49:11.258Z,16.85
2018-12-15T19:51:41.021Z,17.57
2018-12-15T19:54:10.921Z,20.10
2018-12-15T19:56:40.846Z,18.82
2018-12-15T19:59:14.784Z,18.80
2018-12-15T20:01:46.058Z,16.62
2018-12-15T20:04:15.728Z,17.55
2018-12-15T20:06:45.763Z,17.98
2018-12-15T20:09:15.496Z,21.85
2018-12-15T20:11:46.013Z,19.35
2018-12-15T20:14:15.931Z,19.05
2018-12-15T20:16:45.697Z,18.07
2018-12-15T20:19:15.480Z,21.10
2018-12-15T20:21:45.244Z,19.65
2018-12-15T20:24:15.200Z,18.75
2018-12-15T20:26:45.260Z,19.00
2018-12-15T20:29:15.227Z,19.98
2018-12-15T20:31:45.269Z,17.98
2018-12-15T20:34:15.650Z,19.07
2018-12-15T20:36:45.608Z,17.23
2018-12-15T20:39:16.286Z,19.52
2018-12-15T20:41:46.123Z,23.57
2018-12-15T20:44:16.073Z,17.95
2018-12-15T20:46:45.982Z,16.70
2018-12-15T20:49:15.921Z,21.60
2018-12-15T20:51:45.833Z,18.48
2018-12-15T20:54:20.925Z,20.35
2018-12-15T20:56:51.732Z,19.15
2018-12-15T20:59:21.533Z,19.20
2018-12-15T21:01:52.689Z,20.30
2018-12-15T21:04:22.505Z,18.05
2018-12-15T21:06:52.480Z,18.52
2018-12-15T21:09:22.382Z,18.15
2018-12-15T21:11:52.459Z,19.37
2018-12-15T21:14:23.302Z,18.12
2018-12-15T21:16:53.891Z,18.32
2018-12-15T21:19:23.636Z,18.98
2018-12-15T21:21:53.666Z,17.23
2018-12-15T21:24:24.261Z,18.42
2018-12-15T21:26:55.140Z,19.55
2018-12-15T21:29:26.170Z,19.02
2018-12-15T21:31:56.855Z,19.45
2018-12-15T21:34:27.031Z,21.48
2018-12-15T21:36:56.806Z,19.23
2018-12-15T21:39:26.677Z,19.17
2018-12-15T21:41:56.571Z,18.60
2018-12-15T21:44:27.326Z,19.70
2018-12-15T21:46:57.610Z,18.42
2018-12-15T21:49:28.148Z,18.65
2018-12-15T21:51:58.237Z,20.68
2018-12-15T21:54:28.112Z,16.70
2018-12-15T21:56:58.502Z,18.57
2018-12-15T21:59:28.305Z,17.30
2018-12-15T22:01:58.433Z,18.20
2018-12-15T22:04:28.194Z,16.95
2018-12-15T22:06:58.161Z,20.62
2018-12-15T22:09:28.925Z,16.55
2018-12-15T22:11:58.849Z,17.85
2018-12-15T22:14:28.769Z,17.40
2018-12-15T22:16:58.688Z,18.42
2018-12-15T22:19:28.561Z,17.92
2018-12-15T22:22:02.972Z,17.00
2018-12-15T22:24:31.690Z,18.02
2018-12-15T22:27:01.417Z,16.93
2018-12-15T22:29:31.271Z,20.35
2018-12-15T22:32:01.945Z,25.82
2018-12-15T22:34:31.905Z,17.57
2018-12-15T22:37:01.728Z,18.65
2018-12-15T22:39:31.540Z,16.42
2018-12-15T22:42:01.429Z,15.78
2018-12-15T22:44:31.349Z,15.38
2018-12-15T22:47:02.100Z,20.35
2018-12-15T22:49:31.898Z,17.65
2018-12-15T22:52:01.750Z,15.70
2018-12-15T22:54:31.580Z,18.55
2018-12-15T22:57:01.518Z,16.77
2018-12-15T22:59:31.394Z,17.98
2018-12-15T23:02:02.839Z,18.25
2018-12-15T23:04:32.723Z,16.50
2018-12-15T23:07:02.601Z,15.93
2018-12-15T23:09:33.192Z,15.25
2018-12-15T23:12:06.348Z,15.13
2018-12-15T23:14:36.430Z,16.93
2018-12-15T23:17:06.260Z,14.98
2018-12-15T23:19:36.030Z,16.02
2018-12-15T23:22:05.849Z,15.93
2018-12-15T23:24:35.673Z,14.95
2018-12-15T23:27:05.600Z,16.55
2018-12-15T23:29:35.517Z,14.87
2018-12-15T23:32:05.484Z,17.17
2018-12-15T23:34:35.965Z,16.12
2018-12-15T23:37:06.020Z,16.85
2018-12-15T23:39:35.805Z,19.20
2018-12-15T23:42:05.772Z,16.57
2018-12-15T23:44:35.545Z,16.80
2018-12-15T23:47:05.602Z,17.20
2018-12-15T23:49:35.582Z,17.37
2018-12-15T23:52:05.347Z,15.50
2018-12-15T23:54:35.435Z,17.77
2018-12-15T23:57:05.252Z,16.02
2018-12-15T23:59:35.268Z,15.23
